createdAt,value
2019-03-06T07:06:27.976Z,87.90
2019-03-06T07:11:46.518Z,86.90
2019-03-06T07:16:57.506Z,87.20
2019-03-06T07:22:09.526Z,86.50
2019-03-06T07:27:21.865Z,85.30
2019-03-06T07:32:44.730Z,86.10
2019-03-06T07:37:51.009Z,84.70
2019-03-06T07:42:57.159Z,82.80
2019-03-06T07:48:03.577Z,83.70
2019-03-06T07:53:41.687Z,84.20
2019-03-06T07:58:54.525Z,84.10
2019-03-06T08:04:04.799Z,84.30
2019-03-06T08:09:11.992Z,83.20
2019-03-06T08:14:22.190Z,83.40
2019-03-06T08:19:40.119Z,85.60
2019-03-06T08:25:02.465Z,84.30
2019-03-06T08:30:11.279Z,85.10
2019-03-06T08:35:15.948Z,85.00
2019-03-06T08:40:20.683Z,84.30
2019-03-06T08:45:35.567Z,85.40
2019-03-06T08:50:44.819Z,82.70
2019-03-06T08:55:51.190Z,83.80
2019-03-06T09:01:09.140Z,85.00
2019-03-06T09:06:21.563Z,85.70
2019-03-06T09:11:44.210Z,85.40
2019-03-06T09:16:53.167Z,85.00
2019-03-06T09:22:05.279Z,84.00
2019-03-06T09:27:21.576Z,83.70
2019-03-06T09:32:31.050Z,84.70
2019-03-06T09:37:53.612Z,85.90
2019-03-06T09:42:59.885Z,85.70
2019-03-06T09:48:15.682Z,85.80
2019-03-06T09:53:22.067Z,85.20
2019-03-06T09:58:28.241Z,84.00
2019-03-06T10:03:43.224Z,84.10
2019-03-06T10:08:55.336Z,84.10
2019-03-06T10:14:04.769Z,83.90
2019-03-06T10:19:16.799Z,83.30
2019-03-06T10:24:21.563Z,84.90
2019-03-06T10:29:26.391Z,83.90
2019-03-06T10:34:31.330Z,84.00
2019-03-06T10:39:35.851Z,83.30
2019-03-06T10:44:40.507Z,82.50
2019-03-06T10:49:45.019Z,84.10
2019-03-06T10:54:49.688Z,82.10
2019-03-06T10:59:54.434Z,81.90
2019-03-06T11:05:00.703Z,82.40
2019-03-06T11:10:08.519Z,79.80
2019-03-06T11:15:16.640Z,81.40
2019-03-06T11:20:25.076Z,79.80
2019-03-06T11:25:29.819Z,78.90
2019-03-06T11:30:40.089Z,78.60
2019-03-06T11:35:45.424Z,76.80
2019-03-06T11:40:50.181Z,76.80
2019-03-06T11:45:54.702Z,77.00
2019-03-06T11:50:59.372Z,73.40
2019-03-06T11:56:03.873Z,72.40
2019-03-06T12:01:11.907Z,73.80
2019-03-06T12:06:16.504Z,73.40
2019-03-06T12:11:21.391Z,72.70
2019-03-06T12:16:26.210Z,73.30
2019-03-06T12:21:31.182Z,73.60
2019-03-06T12:26:35.923Z,71.20
2019-03-06T12:31:40.441Z,71.70
2019-03-06T12:36:45.100Z,69.20
2019-03-06T12:41:50.780Z,69.30
2019-03-06T12:46:55.497Z,70.80
2019-03-06T12:52:00.246Z,68.80
2019-03-06T12:57:05.307Z,70.30
2019-03-06T13:02:09.818Z,68.50
2019-03-06T13:07:14.657Z,67.40
2019-03-06T13:12:19.521Z,69.00
2019-03-06T13:17:24.263Z,69.70
2019-03-06T13:22:28.987Z,68.00
2019-03-06T13:27:33.746Z,67.50
2019-03-06T13:32:51.806Z,68.20
2019-03-06T13:37:56.439Z,68.20
2019-03-06T13:43:01.186Z,67.60
2019-03-06T13:48:05.907Z,65.30
2019-03-06T13:53:19.806Z,66.80
2019-03-06T13:58:16.847Z,66.90
2019-03-06T14:03:21.685Z,65.60
2019-03-06T14:08:26.429Z,66.20
2019-03-06T14:13:31.154Z,65.50
2019-03-06T14:18:35.902Z,63.20
2019-03-06T14:23:40.961Z,63.60
2019-03-06T14:28:45.703Z,64.20
2019-03-06T14:33:50.753Z,64.90
2019-03-06T14:38:55.490Z,63.30
2019-03-06T14:44:00.232Z,63.30
2019-03-06T14:49:04.975Z,64.20
2019-03-06T14:54:09.489Z,64.80
2019-03-06T14:59:14.150Z,65.90
2019-03-06T15:04:18.671Z,65.40
2019-03-06T15:09:24.867Z,65.10
2019-03-06T15:14:35.857Z,66.00
2019-03-06T15:19:35.569Z,67.00
2019-03-06T15:24:41.707Z,66.90
2019-03-06T15:29:46.291Z,66.10
2019-03-06T15:34:51.643Z,65.60
2019-03-06T15:39:54.277Z,64.90
2019-03-06T15:44:56.212Z,66.50
2019-03-06T15:49:58.195Z,67.20
2019-03-06T15:55:00.489Z,67.50
2019-03-06T16:00:05.523Z,68.70
2019-03-06T16:05:11.843Z,69.70
2019-03-06T16:10:14.351Z,70.30
2019-03-06T16:15:16.367Z,70.80
2019-03-06T16:20:19.223Z,70.70
2019-03-06T16:25:21.248Z,71.70
2019-03-06T16:30:24.766Z,72.70
2019-03-06T16:35:28.268Z,73.00
2019-03-06T16:40:30.711Z,73.40
2019-03-06T16:45:32.837Z,73.60
2019-03-06T16:50:34.815Z,73.60
2019-03-06T16:55:36.827Z,75.00
2019-03-06T17:00:38.769Z,73.90
2019-03-06T17:05:40.751Z,74.80
2019-03-06T17:10:42.732Z,74.10
2019-03-06T17:15:44.433Z,74.30
2019-03-06T17:20:46.983Z,73.90
2019-03-06T17:25:49.267Z,74.90
2019-03-06T17:30:51.285Z,75.10
2019-03-06T17:35:54.144Z,74.40
2019-03-06T17:40:56.123Z,75.70
2019-03-06T17:45:58.404Z,75.80
2019-03-06T17:51:00.823Z,75.30
2019-03-06T17:56:02.988Z,75.40
2019-03-06T18:01:08.341Z,74.50
2019-03-06T18:06:10.309Z,73.10
2019-03-06T18:11:13.512Z,74.40
2019-03-06T18:16:15.487Z,75.20
2019-03-06T18:21:17.470Z,75.00
2019-03-06T18:26:19.748Z,75.20
2019-03-06T18:31:21.732Z,74.70
2019-03-06T18:36:24.935Z,74.40
2019-03-06T18:41:28.137Z,75.20
2019-03-06T18:46:30.421Z,75.70
2019-03-06T18:51:32.398Z,75.20
2019-03-06T18:56:34.385Z,73.70
2019-03-06T19:01:36.362Z,73.50
2019-03-06T19:06:38.337Z,74.10
2019-03-06T19:11:40.618Z,74.40
2019-03-06T19:16:42.429Z,74.70
2019-03-06T19:21:44.570Z,75.90
2019-03-06T19:26:46.550Z,75.10
2019-03-06T19:31:48.521Z,75.00
2019-03-06T19:36:50.514Z,74.70
2019-03-06T19:41:52.794Z,74.70
2019-03-06T19:46:54.759Z,76.30
2019-03-06T19:51:56.736Z,77.40
2019-03-06T19:56:58.712Z,77.70
2019-03-06T20:02:00.690Z,77.10
2019-03-06T20:07:02.671Z,77.60
2019-03-06T20:12:04.586Z,77.40
2019-03-06T20:17:06.360Z,77.10
2019-03-06T20:22:08.330Z,76.70
2019-03-06T20:27:10.278Z,76.10
2019-03-06T20:32:12.245Z,77.10
2019-03-06T20:37:14.226Z,76.70
2019-03-06T20:42:18.510Z,76.70
2019-03-06T20:47:20.329Z,76.90
2019-03-06T20:52:22.308Z,76.10
2019-03-06T20:57:24.027Z,75.60
2019-03-06T21:02:26.567Z,76.00
2019-03-06T21:07:28.850Z,75.60
2019-03-06T21:12:30.825Z,75.80
2019-03-06T21:17:34.683Z,75.60
2019-03-06T21:22:36.630Z,75.80
2019-03-06T21:27:38.333Z,76.90
2019-03-06T21:32:42.196Z,75.80
2019-03-06T21:37:44.534Z,75.90
2019-03-06T21:42:46.376Z,76.10
2019-03-06T21:47:48.357Z,76.10
2019-03-06T21:52:50.332Z,76.00
2019-03-06T21:57:52.314Z,76.60
2019-03-06T22:02:54.281Z,76.80
2019-03-06T22:07:56.258Z,77.40
2019-03-06T22:12:58.546Z,76.90
2019-03-06T22:18:00.519Z,75.70
2019-03-06T22:23:02.496Z,76.40
2019-03-06T22:28:04.473Z,76.50
2019-03-06T22:33:06.452Z,75.80
2019-03-06T22:38:10.270Z,76.00
2019-03-06T22:43:12.250Z,74.40
2019-03-06T22:48:14.229Z,74.20
2019-03-06T22:53:16.206Z,74.10
2019-03-06T22:58:18.181Z,73.60
2019-03-06T23:03:20.785Z,73.20
2019-03-06T23:08:22.749Z,74.30
2019-03-06T23:13:24.728Z,73.80
2019-03-06T23:18:26.701Z,73.40
2019-03-06T23:23:28.613Z,73.40
2019-03-06T23:28:30.962Z,72.90
2019-03-06T23:33:32.939Z,73.50
2019-03-06T23:38:34.916Z,73.50
2019-03-06T23:43:36.893Z,73.60
2019-03-06T23:48:38.870Z,73.50
2019-03-06T23:53:48.862Z,73.50
2019-03-06T23:58:50.812Z,74.50
